Time;durP1;ratioP1;P1;durP2;ratioP2;P2;SDS_P1;SDS_P2;PMS_P1;PMS_P2;Temp;Humidity;BMP_temperature;BMP_pressure;BME280_temperature;BME280_humidity;BME280_pressure;Samples;Min_cycle;Max_cycle;Signal;HPM_P1;HPM_P2
2022/06/08 00:00:10;;;;;;;0.28;0.20;;;9.20;99.90;;;;;;5063997;28;20067;-67
2022/06/08 00:02:36;;;;;;;0.30;0.20;;;9.20;99.90;;;;;;5060790;28;20469;-66
2022/06/08 00:05:02;;;;;;;0.82;0.30;;;9.30;99.90;;;;;;5062969;28;20040;-66
2022/06/08 00:07:28;;;;;;;0.50;0.30;;;9.30;99.90;;;;;;5061561;28;20029;-66
2022/06/08 00:09:53;;;;;;;0.70;0.30;;;9.30;99.90;;;;;;5062927;28;20385;-67
2022/06/08 00:12:19;;;;;;;0.65;0.30;;;9.30;99.90;;;;;;5063752;28;20368;-67
2022/06/08 00:14:45;;;;;;;1.20;0.60;;;9.20;99.90;;;;;;5061710;28;20044;-67
2022/06/08 00:17:11;;;;;;;0.50;0.30;;;9.30;99.90;;;;;;5063945;28;20051;-67
2022/06/08 00:19:37;;;;;;;0.95;0.60;;;9.30;99.90;;;;;;5061567;28;20025;-67
2022/06/08 00:22:03;;;;;;;0.98;0.35;;;9.20;99.90;;;;;;5063576;28;20146;-67
2022/06/08 00:24:30;;;;;;;0.50;0.30;;;9.30;99.90;;;;;;5062208;28;20045;-67
2022/06/08 00:26:55;;;;;;;1.00;0.30;;;9.20;99.90;;;;;;5062337;28;20055;-67
2022/06/08 00:29:21;;;;;;;0.47;0.30;;;9.20;99.90;;;;;;5061921;28;20017;-67
2022/06/08 00:31:47;;;;;;;0.75;0.30;;;9.20;99.90;;;;;;5061432;28;20055;-67
2022/06/08 00:34:13;;;;;;;0.57;0.30;;;9.20;99.90;;;;;;5063489;28;20025;-67
2022/06/08 00:36:38;;;;;;;1.52;0.35;;;9.20;99.90;;;;;;5061410;28;20520;-67
2022/06/08 00:39:04;;;;;;;0.93;0.32;;;9.20;99.90;;;;;;5063100;28;20021;-66
2022/06/08 00:41:42;;;;;;;0.73;0.30;;;9.20;99.90;;;;;;5061744;28;20029;-67
2022/06/08 00:44:18;;;;;;;0.93;0.38;;;9.20;99.90;;;;;;5061970;28;20029;-67
2022/06/08 00:46:45;;;;;;;0.85;0.30;;;9.10;99.90;;;;;;5063142;28;20056;-67
2022/06/08 00:49:43;;;;;;;0.70;0.30;;;9.10;99.90;;;;;;5059175;28;20059;-67
2022/06/08 00:52:11;;;;;;;0.52;0.30;;;9.10;99.90;;;;;;5058121;28;20072;-67
2022/06/08 00:54:44;;;;;;;0.47;0.30;;;9.10;99.90;;;;;;5062133;28;20043;-67
2022/06/08 00:57:18;;;;;;;2.90;0.50;;;9.20;99.90;;;;;;5061631;28;20061;-67
2022/06/08 00:59:49;;;;;;;2.13;0.50;;;9.20;99.90;;;;;;5063084;28;20036;-67
2022/06/08 01:02:15;;;;;;;0.60;0.30;;;9.20;99.90;;;;;;5060851;28;20071;-66
2022/06/08 01:04:40;;;;;;;0.90;0.32;;;9.30;99.90;;;;;;5062923;28;20092;-67
2022/06/08 01:07:06;;;;;;;0.60;0.30;;;9.20;99.90;;;;;;5060122;28;20033;-67
2022/06/08 01:09:39;;;;;;;0.40;0.28;;;9.20;99.90;;;;;;5061964;28;20037;-67
2022/06/08 01:12:12;;;;;;;0.65;0.30;;;9.20;99.90;;;;;;5062446;28;20380;-66
2022/06/08 01:14:38;;;;;;;0.95;0.40;;;9.20;99.90;;;;;;5060948;28;20021;-68
2022/06/08 01:17:13;;;;;;;0.70;0.30;;;9.30;99.90;;;;;;5061775;28;20112;-67
2022/06/08 01:19:41;;;;;;;0.28;0.22;;;9.40;99.90;;;;;;5060363;28;20029;-67
2022/06/08 01:22:12;;;;;;;1.30;0.40;;;9.50;99.90;;;;;;5061989;28;20018;-68
2022/06/08 01:24:40;;;;;;;1.13;0.33;;;9.50;99.90;;;;;;5060088;28;20039;-67
2022/06/08 01:27:13;;;;;;;0.50;0.30;;;9.50;99.90;;;;;;5059807;28;20272;-68
2022/06/08 01:30:00;;;;;;;0.43;0.28;;;9.50;99.90;;;;;;5062314;28;20040;-67
2022/06/08 01:33:01;;;;;;;0.55;0.28;;;9.50;99.90;;;;;;5059085;28;20111;-67
2022/06/08 01:35:47;;;;;;;0.25;0.20;;;9.50;99.90;;;;;;5049265;28;20107;-67
2022/06/08 01:38:44;;;;;;;0.57;0.30;;;9.50;99.90;;;;;;5062202;28;20025;-67
2022/06/08 01:41:47;;;;;;;1.17;0.40;;;9.60;99.90;;;;;;5059162;28;20384;-67
2022/06/08 01:44:30;;;;;;;1.02;0.32;;;9.70;99.90;;;;;;5060497;28;20024;-68
2022/06/08 01:47:06;;;;;;;1.25;0.45;;;9.70;99.90;;;;;;5062199;28;20021;-68
2022/06/08 01:49:41;;;;;;;0.60;0.30;;;9.80;99.90;;;;;;5059696;28;20104;-67
2022/06/08 01:52:39;;;;;;;0.60;0.40;;;9.80;99.90;;;;;;5061240;28;20028;-67
2022/06/08 01:55:34;;;;;;;0.98;0.40;;;9.90;99.90;;;;;;5061836;28;20033;-67
2022/06/08 01:58:18;;;;;;;1.35;0.40;;;9.90;99.90;;;;;;5055695;28;20505;-68
2022/06/08 02:00:51;;;;;;;0.50;0.25;;;10.10;99.90;;;;;;5061328;28;20029;-67
2022/06/08 02:03:24;;;;;;;0.50;0.28;;;10.20;99.90;;;;;;5061254;28;20032;-67
2022/06/08 02:06:16;;;;;;;0.60;0.28;;;10.30;99.90;;;;;;5058972;28;20029;-67
2022/06/08 02:08:54;;;;;;;;;;;10.30;99.90;;;;;;5062240;28;20029;-67
2022/06/08 02:11:23;;;;;;;1.20;0.40;;;10.40;99.90;;;;;;5060065;28;19915;-67
2022/06/08 02:13:55;;;;;;;1.33;0.50;;;10.50;99.90;;;;;;5059519;28;20021;-67
2022/06/08 02:16:29;;;;;;;0.30;0.22;;;10.50;99.90;;;;;;5061470;28;20044;-68
2022/06/08 02:19:00;;;;;;;0.70;0.30;;;10.60;99.90;;;;;;5059887;28;20021;-68
2022/06/08 02:21:42;;;;;;;0.75;0.30;;;10.70;99.90;;;;;;5061213;28;20025;-68
2022/06/08 02:24:37;;;;;;;0.85;0.40;;;10.70;99.90;;;;;;5059935;28;20037;-68
2022/06/08 02:27:11;;;;;;;1.17;0.30;;;10.70;99.90;;;;;;5059533;28;20040;-68
2022/06/08 02:29:42;;;;;;;0.32;0.20;;;10.80;99.90;;;;;;5067389;28;20055;-67
2022/06/08 02:35:08;;;;;;;0.93;0.30;;;10.90;99.90;;;;;;5067857;28;20310;-67
2022/06/08 02:37:36;;;;;;;0.20;0.20;;;10.90;99.90;;;;;;5067455;28;20021;-67
2022/06/08 02:40:12;;;;;;;1.65;0.68;;;11.00;99.90;;;;;;5066570;28;20023;-67
2022/06/08 02:43:08;;;;;;;0.43;0.22;;;11.10;99.90;;;;;;5068233;28;20017;-67
2022/06/08 02:45:40;;;;;;;0.55;0.30;;;11.00;99.90;;;;;;5066119;28;20052;-67
2022/06/08 02:48:12;;;;;;;0.88;0.40;;;11.10;99.90;;;;;;5067352;28;20056;-67
2022/06/08 02:50:49;;;;;;;1.35;0.50;;;11.10;99.90;;;;;;5067411;28;20085;-67
2022/06/08 02:53:17;;;;;;;0.43;0.20;;;11.20;99.90;;;;;;5066066;28;20448;-68
2022/06/08 02:55:52;;;;;;;0.45;0.30;;;11.20;99.90;;;;;;5067901;28;20043;-67
2022/06/08 02:58:26;;;;;;;0.47;0.20;;;11.20;99.90;;;;;;5065179;28;20045;-67
2022/06/08 03:00:57;;;;;;;2.22;0.75;;;11.20;99.90;;;;;;5067334;28;20013;-68
2022/06/08 03:03:34;;;;;;;0.40;0.20;;;11.30;99.90;;;;;;5067449;28;20051;-67
2022/06/08 03:06:08;;;;;;;0.82;0.30;;;11.30;99.90;;;;;;5066222;28;20119;-67
2022/06/08 03:08:39;;;;;;;1.35;0.60;;;11.30;99.90;;;;;;5067981;28;20087;-68
2022/06/08 03:11:08;;;;;;;0.80;0.30;;;11.30;99.90;;;;;;5066341;28;20032;-67
2022/06/08 03:13:43;;;;;;;0.95;0.38;;;11.30;99.90;;;;;;5067351;28;20035;-68
2022/06/08 03:16:25;;;;;;;1.15;0.40;;;11.30;99.90;;;;;;5067240;28;20555;-68
2022/06/08 03:18:51;;;;;;;1.42;0.55;;;11.30;99.90;;;;;;5064800;28;20017;-68
2022/06/08 03:21:17;;;;;;;0.98;0.40;;;11.30;99.90;;;;;;5067455;28;20039;-68
2022/06/08 03:23:42;;;;;;;1.40;0.70;;;11.30;99.90;;;;;;5065669;28;20061;-67
2022/06/08 03:26:08;;;;;;;1.17;0.50;;;11.30;99.90;;;;;;5067729;28;20036;-68
2022/06/08 03:28:34;;;;;;;1.00;0.40;;;11.30;99.90;;;;;;5066723;28;20021;-68
2022/06/08 03:30:59;;;;;;;0.47;0.25;;;11.30;99.90;;;;;;5065656;28;20043;-68
2022/06/08 03:33:25;;;;;;;0.77;0.45;;;11.30;99.90;;;;;;5067643;28;20021;-69
2022/06/08 03:35:50;;;;;;;1.73;0.40;;;11.40;99.90;;;;;;5065952;28;20037;-68
2022/06/08 03:38:16;;;;;;;0.82;0.43;;;11.50;99.90;;;;;;5067933;28;20075;-67
2022/06/08 03:40:42;;;;;;;0.90;0.35;;;11.60;99.90;;;;;;5062797;28;20112;-68
2022/06/08 03:43:07;;;;;;;0.35;0.20;;;11.60;99.90;;;;;;5064319;28;20083;-67
2022/06/08 03:45:40;;;;;;;1.00;0.38;;;11.70;99.90;;;;;;5062842;28;20047;-69
2022/06/08 03:48:07;;;;;;;1.58;0.75;;;11.70;99.90;;;;;;5063642;28;20021;-68
2022/06/08 03:50:33;;;;;;;0.73;0.40;;;11.80;99.90;;;;;;5063588;28;20028;-68
2022/06/08 03:53:06;;;;;;;0.75;0.30;;;11.90;99.90;;;;;;5062567;28;20025;-68
2022/06/08 03:55:34;;;;;;;0.95;0.30;;;11.90;99.90;;;;;;5064235;28;20047;-68
2022/06/08 03:58:01;;;;;;;1.80;0.77;;;12.00;99.90;;;;;;5062265;28;20051;-68
2022/06/08 04:00:28;;;;;;;1.35;0.68;;;12.10;99.90;;;;;;5063946;28;20052;-68
2022/06/08 04:02:54;;;;;;;1.05;0.52;;;12.10;99.90;;;;;;5062907;28;20045;-68
2022/06/08 04:05:20;;;;;;;0.77;0.30;;;12.20;99.90;;;;;;5061796;28;20029;-68
2022/06/08 04:07:46;;;;;;;1.55;0.75;;;12.20;99.90;;;;;;5063822;28;20029;-68
2022/06/08 04:10:12;;;;;;;0.82;0.30;;;12.30;99.90;;;;;;5062247;28;20017;-68
2022/06/08 04:12:38;;;;;;;2.00;0.52;;;12.30;99.90;;;;;;5064038;28;20029;-68
2022/06/08 04:15:04;;;;;;;1.08;0.43;;;12.40;99.90;;;;;;5061885;28;20457;-68
2022/06/08 04:17:30;;;;;;;0.90;0.40;;;12.40;99.90;;;;;;5063737;28;20028;-68
2022/06/08 04:19:56;;;;;;;1.35;0.85;;;12.50;99.90;;;;;;5060782;28;20497;-68
2022/06/08 04:22:23;;;;;;;1.15;0.70;;;12.50;99.90;;;;;;5063075;28;20036;-68
2022/06/08 04:24:49;;;;;;;1.02;0.38;;;12.60;99.90;;;;;;5063126;28;20103;-68
2022/06/08 04:27:15;;;;;;;1.58;0.75;;;12.60;99.90;;;;;;5061914;28;20021;-68
2022/06/08 04:29:41;;;;;;;1.10;0.50;;;12.70;99.90;;;;;;5062474;28;20056;-68
2022/06/08 04:32:09;;;;;;;0.93;0.40;;;12.70;99.90;;;;;;5061553;28;20029;-69
2022/06/08 04:34:37;;;;;;;0.77;0.35;;;12.80;99.90;;;;;;5061889;28;20178;-68
2022/06/08 04:37:03;;;;;;;0.75;0.47;;;12.80;99.90;;;;;;5061904;28;20044;-68
2022/06/08 04:39:28;;;;;;;0.63;0.60;;;12.80;99.90;;;;;;5062475;28;20033;-68
2022/06/08 04:41:54;;;;;;;1.02;0.32;;;12.90;99.90;;;;;;5061526;28;20021;-69
2022/06/08 04:44:21;;;;;;;1.00;0.50;;;12.90;99.90;;;;;;5061715;28;20017;-68
2022/06/08 04:46:46;;;;;;;0.52;0.30;;;13.00;99.90;;;;;;5063495;28;20031;-68
2022/06/08 04:49:12;;;;;;;0.68;0.28;;;13.10;99.90;;;;;;5061391;28;20029;-68
2022/06/08 04:51:37;;;;;;;0.77;0.38;;;13.10;99.90;;;;;;5061508;28;20025;-68
2022/06/08 04:54:03;;;;;;;0.75;0.30;;;13.10;99.90;;;;;;5061524;28;20043;-68
2022/06/08 04:56:29;;;;;;;0.82;0.32;;;13.20;99.90;;;;;;5062181;28;20112;-69
2022/06/08 04:58:55;;;;;;;0.60;0.30;;;13.20;99.90;;;;;;5062362;28;20036;-68
2022/06/08 05:01:22;;;;;;;0.98;0.35;;;13.30;99.90;;;;;;5061475;28;20036;-69
2022/06/08 05:03:47;;;;;;;1.70;0.50;;;13.30;99.90;;;;;;5063038;28;20067;-68
2022/06/08 05:06:13;;;;;;;0.73;0.30;;;13.40;99.90;;;;;;5060881;28;20029;-68
2022/06/08 05:08:40;;;;;;;1.75;0.60;;;13.50;99.90;;;;;;5062763;28;20029;-68
2022/06/08 05:11:07;;;;;;;1.23;0.57;;;13.50;99.90;;;;;;5061246;28;20041;-68
2022/06/08 05:13:34;;;;;;;0.75;0.47;;;13.60;99.90;;;;;;5062219;28;20025;-68
2022/06/08 05:16:00;;;;;;;0.88;0.30;;;13.70;99.90;;;;;;5061909;28;20029;-69
2022/06/08 05:18:26;;;;;;;1.13;0.40;;;13.80;99.90;;;;;;5061123;28;20036;-69
2022/06/08 05:20:53;;;;;;;1.48;0.50;;;13.90;99.90;;;;;;5062186;28;20036;-68
2022/06/08 05:23:23;;;;;;;1.38;0.45;;;14.00;99.90;;;;;;5060298;28;20444;-68
2022/06/08 05:25:49;;;;;;;0.90;0.45;;;14.20;99.90;;;;;;5060953;28;20037;-69
2022/06/08 05:28:15;;;;;;;0.52;0.30;;;14.20;99.90;;;;;;5060808;28;20032;-68
2022/06/08 05:30:43;;;;;;;1.55;0.60;;;14.30;99.90;;;;;;5061749;28;20027;-69
2022/06/08 05:33:10;;;;;;;1.45;0.73;;;14.30;99.90;;;;;;5061561;28;20076;-68
2022/06/08 05:35:37;;;;;;;1.50;0.82;;;14.40;99.90;;;;;;5060636;28;20120;-68
2022/06/08 05:38:03;;;;;;;1.13;0.40;;;14.40;99.90;;;;;;5060893;28;20055;-67
2022/06/08 05:40:32;;;;;;;1.20;0.47;;;14.40;99.90;;;;;;5060139;28;20033;-68
2022/06/08 05:42:59;;;;;;;1.38;0.50;;;14.50;99.90;;;;;;5062011;28;20559;-69
2022/06/08 05:45:27;;;;;;;1.00;0.40;;;14.60;99.90;;;;;;5059194;28;20449;-67
2022/06/08 05:47:53;;;;;;;1.27;0.52;;;14.70;99.90;;;;;;5061362;28;20021;-68
2022/06/08 05:50:20;;;;;;;0.88;0.40;;;14.90;99.90;;;;;;5059577;28;20092;-67
2022/06/08 05:52:48;;;;;;;0.17;0.17;;;15.10;99.90;;;;;;5060505;28;20017;-69
2022/06/08 05:55:15;;;;;;;1.42;0.73;;;15.20;99.90;;;;;;5061934;28;20052;-68
2022/06/08 05:57:41;;;;;;;3.03;1.02;;;15.40;99.90;;;;;;5060060;28;20017;-68
2022/06/08 06:00:11;;;;;;;0.98;0.50;;;15.40;99.90;;;;;;5061945;28;20021;-68
2022/06/08 06:02:37;;;;;;;1.45;0.55;;;15.50;99.90;;;;;;5060086;28;20029;-67
2022/06/08 06:05:03;;;;;;;0.82;0.50;;;15.60;99.90;;;;;;5061143;28;20051;-68
2022/06/08 06:07:29;;;;;;;0.93;0.40;;;15.60;99.90;;;;;;5061148;28;20025;-67
2022/06/08 06:09:55;;;;;;;0.47;0.20;;;15.70;99.90;;;;;;5060235;28;20097;-67
2022/06/08 06:12:20;;;;;;;0.38;0.20;;;15.70;99.90;;;;;;5061815;28;20021;-67
2022/06/08 06:14:46;;;;;;;1.67;0.80;;;15.80;99.90;;;;;;5059468;28;20025;-67
2022/06/08 06:17:12;;;;;;;0.38;0.20;;;15.80;99.90;;;;;;5061644;28;20043;-67
2022/06/08 06:19:38;;;;;;;0.85;0.30;;;16.00;99.90;;;;;;5059522;28;20021;-68
2022/06/08 06:22:04;;;;;;;1.08;0.52;;;16.30;99.90;;;;;;5061169;28;20044;-67
2022/06/08 06:24:31;;;;;;;1.52;0.75;;;16.60;99.90;;;;;;5060451;28;20055;-67
2022/06/08 06:26:57;;;;;;;1.35;0.77;;;16.80;99.90;;;;;;5060178;28;20071;-68
2022/06/08 06:29:23;;;;;;;2.50;1.08;;;17.30;99.90;;;;;;5061489;28;20037;-68
2022/06/08 06:31:55;;;;;;;0.85;0.55;;;17.60;99.90;;;;;;5059448;28;20033;-68
2022/06/08 06:34:22;;;;;;;;;;;18.00;99.90;;;;;;5060701;28;20019;-68
2022/06/08 06:36:48;;;;;;;1.50;0.88;;;18.30;99.90;;;;;;5059706;28;19912;-68
2022/06/08 06:39:14;;;;;;;1.50;0.40;;;18.40;99.90;;;;;;5060844;28;20043;-68
2022/06/08 06:41:43;;;;;;;0.95;0.73;;;18.90;99.90;;;;;;5060820;28;20025;-68
2022/06/08 06:44:08;;;;;;;1.25;0.60;;;19.00;99.90;;;;;;5059864;28;20369;-68
2022/06/08 06:46:34;;;;;;;2.75;0.75;;;19.10;99.90;;;;;;5061459;28;20108;-68
2022/06/08 06:49:00;;;;;;;1.13;0.60;;;19.10;99.90;;;;;;5059098;28;20033;-69
2022/06/08 06:51:26;;;;;;;0.17;0.10;;;19.10;99.90;;;;;;5060936;28;20021;-68
2022/06/08 06:53:51;;;;;;;0.47;0.20;;;19.00;99.90;;;;;;5059707;28;20037;-67
2022/06/08 06:56:17;;;;;;;0.25;0.20;;;19.70;99.90;;;;;;5060619;28;20033;-68
2022/06/08 06:58:47;;;;;;;1.10;0.60;;;20.00;99.90;;;;;;5060303;28;20029;-68
2022/06/08 07:01:13;;;;;;;0.47;0.13;;;20.10;99.90;;;;;;5059716;28;20037;-68
2022/06/08 07:03:38;;;;;;;0.47;0.20;;;20.80;99.90;;;;;;5061447;28;20048;-67
2022/06/08 07:06:04;;;;;;;0.17;0.13;;;21.20;99.90;;;;;;5059453;28;20354;-68
2022/06/08 07:08:30;;;;;;;0.80;0.40;;;21.60;99.90;;;;;;5061116;28;20076;-68
2022/06/08 07:13:41;;;;;;;0.57;0.35;;;21.60;99.90;;;;;;5060589;28;20040;-68
2022/06/08 07:16:06;;;;;;;0.38;0.20;;;21.40;99.90;;;;;;5062780;28;20044;-69
2022/06/08 07:18:32;;;;;;;0.10;0.10;;;21.30;99.90;;;;;;5061715;28;20380;-68
2022/06/08 07:20:58;;;;;;;0.13;0.13;;;21.50;99.90;;;;;;5064372;28;20040;-67
2022/06/08 07:23:23;;;;;;;0.38;0.13;;;21.20;99.90;;;;;;5062761;28;20528;-68
2022/06/08 07:25:49;;;;;;;0.17;0.10;;;21.20;99.90;;;;;;5064584;28;20049;-68
2022/06/08 07:28:15;;;;;;;0.38;0.20;;;21.10;99.90;;;;;;5063207;28;20052;-68
2022/06/08 07:30:42;;;;;;;0.60;0.30;;;20.90;99.90;;;;;;5063952;28;20025;-69
2022/06/08 07:33:07;;;;;;;0.93;0.50;;;20.70;99.90;;;;;;5064034;28;20028;-69
2022/06/08 07:35:33;;;;;;;0.28;0.10;;;20.70;99.90;;;;;;5062957;28;20123;-68
2022/06/08 07:37:59;;;;;;;0.38;0.10;;;20.70;99.90;;;;;;5064561;28;20052;-68
2022/06/08 07:40:24;;;;;;;0.10;0.10;;;20.70;99.90;;;;;;5062470;28;20025;-67
2022/06/08 07:42:50;;;;;;;0.22;0.10;;;20.80;99.90;;;;;;5064281;28;20052;-68
2022/06/08 07:45:16;;;;;;;0.10;0.10;;;20.80;99.90;;;;;;5062929;28;20021;-68
2022/06/08 07:50:27;;;;;;;0.10;0.10;;;21.10;99.90;;;;;;5063924;28;20392;-68
2022/06/08 07:52:56;;;;;;;0.10;0.10;;;21.20;99.90;;;;;;5062830;28;20476;-68
2022/06/08 07:55:22;;;;;;;0.20;0.20;;;21.00;99.90;;;;;;5064658;28;20037;-67
2022/06/08 07:57:48;;;;;;;0.10;0.10;;;20.90;99.90;;;;;;5064651;28;20025;-68
2022/06/08 08:00:19;;;;;;;0.10;0.10;;;21.40;99.90;;;;;;5065834;28;20352;-68
2022/06/08 08:02:44;;;;;;;0.25;0.10;;;21.30;99.90;;;;;;5064836;28;20037;-67
2022/06/08 08:05:12;;;;;;;0.45;0.25;;;21.30;99.90;;;;;;5063846;28;20021;-69
2022/06/08 08:07:39;;;;;;;0.40;0.17;;;21.40;99.90;;;;;;5064004;28;20021;-68
2022/06/08 08:10:08;;;;;;;0.10;0.10;;;22.10;99.90;;;;;;5062047;28;20032;-67
2022/06/08 08:12:34;;;;;;;0.38;0.32;;;21.80;99.90;;;;;;5064178;28;20025;-69
2022/06/08 08:14:59;;;;;;;0.32;0.13;;;21.60;99.90;;;;;;5061807;28;20496;-68
2022/06/08 08:17:25;;;;;;;0.65;0.40;;;21.40;99.90;;;;;;5063843;28;20039;-68
2022/06/08 08:19:50;;;;;;;0.52;0.32;;;21.70;99.90;;;;;;5062036;28;20029;-68
2022/06/08 08:22:19;;;;;;;0.10;0.10;;;21.70;99.90;;;;;;5061432;28;20031;-68
2022/06/08 08:24:45;;;;;;;0.05;0.05;;;21.70;99.90;;;;;;5062994;28;20049;-68
2022/06/08 08:27:11;;;;;;;0.32;0.10;;;22.20;99.90;;;;;;5061394;28;20132;-68
2022/06/08 08:29:37;;;;;;;0.25;0.10;;;22.60;99.90;;;;;;5063541;28;20017;-68
2022/06/08 08:32:03;;;;;;;0.17;0.10;;;22.80;99.90;;;;;;5061375;28;20039;-68
2022/06/08 08:34:29;;;;;;;0.10;0.10;;;22.90;99.90;;;;;;5061883;28;20022;-69
2022/06/08 08:36:55;;;;;;;0.17;0.10;;;23.00;99.90;;;;;;5061991;28;20037;-67
2022/06/08 08:39:22;;;;;;;0.68;0.30;;;22.80;99.90;;;;;;5062554;28;20021;-68
2022/06/08 08:44:43;;;;;;;0.30;0.10;;;23.00;99.90;;;;;;5061440;28;20067;-68
2022/06/08 08:47:17;;;;;;;0.10;0.10;;;22.90;99.90;;;;;;5062974;28;20055;-68
2022/06/08 08:49:57;;;;;;;0.10;0.10;;;23.00;99.90;;;;;;5061231;28;20384;-67
2022/06/08 08:53:24;;;;;;;0.10;0.10;;;23.30;99.90;;;;;;5062103;28;20469;-67
2022/06/08 08:56:14;;;;;;;0.10;0.10;;;23.80;99.90;;;;;;5040503;28;20052;-68
2022/06/08 08:58:45;;;;;;;0.32;0.17;;;24.00;99.90;;;;;;5062261;28;20036;-68
2022/06/08 09:01:16;;;;;;;0.20;0.10;;;23.80;99.90;;;;;;5061643;28;20477;-69
2022/06/08 09:03:55;;;;;;;0.10;0.10;;;23.80;99.90;;;;;;5062874;28;20045;-68
2022/06/08 09:06:33;;;;;;;0.10;0.10;;;23.80;99.90;;;;;;5059330;28;20017;-66
2022/06/08 09:09:03;;;;;;;0.20;0.10;;;24.10;99.90;;;;;;5062463;28;20092;-68
2022/06/08 09:11:41;;;;;;;0.10;0.10;;;24.30;99.90;;;;;;5061792;28;20096;-68
2022/06/08 09:14:22;;;;;;;0.08;0.08;;;24.30;99.90;;;;;;5061163;28;20021;-68
2022/06/08 09:16:51;;;;;;;0.63;0.60;;;23.50;99.90;;;;;;5061235;28;20075;-70
2022/06/08 09:19:28;;;;;;;0.10;0.10;;;23.50;99.90;;;;;;5060686;28;20028;-69
2022/06/08 09:21:55;;;;;;;0.10;0.10;;;23.50;99.90;;;;;;5061714;28;20029;-69
2022/06/08 09:24:46;;;;;;;0.10;0.10;;;23.20;99.90;;;;;;5061449;28;20106;-69
2022/06/08 09:27:27;;;;;;;0.30;0.15;;;23.10;99.90;;;;;;5060501;28;20029;-69
2022/06/08 09:29:55;;;;;;;0.10;0.10;;;22.60;99.90;;;;;;5062356;28;20120;-68
2022/06/08 09:32:46;;;;;;;0.52;0.20;;;22.50;99.90;;;;;;5060699;28;20036;-68
2022/06/08 09:35:27;;;;;;;;;;;22.70;99.90;;;;;;5061820;28;20029;-68
2022/06/08 09:37:57;;;;;;;0.73;0.40;;;22.80;99.90;;;;;;5061575;28;19908;-68
2022/06/08 09:40:36;;;;;;;0.30;0.10;;;23.00;99.90;;;;;;5060093;28;20089;-68
2022/06/08 09:43:25;;;;;;;0.43;0.30;;;23.10;99.90;;;;;;5062092;28;20025;-68
2022/06/08 09:46:09;;;;;;;0.00;0.00;;;23.20;99.90;;;;;;5061477;28;20032;-68
2022/06/08 09:52:02;;;;;;;0.68;0.35;;;23.10;99.90;;;;;;5061506;28;20044;-69
2022/06/08 09:54:56;;;;;;;0.10;0.10;;;23.40;99.90;;;;;;5061446;28;20104;-68
2022/06/08 09:57:25;;;;;;;1.20;0.52;;;23.90;99.90;;;;;;5060010;28;20059;-69
2022/06/08 10:00:00;;;;;;;0.93;0.50;;;23.50;99.90;;;;;;5061989;28;20032;-68
2022/06/08 10:02:45;;;;;;;0.10;0.10;;;24.00;99.90;;;;;;5060304;28;20056;-68
2022/06/08 10:05:29;;;;;;;0.50;0.50;;;23.90;99.90;;;;;;5060716;28;20021;-69
2022/06/08 10:08:03;;;;;;;0.30;0.30;;;24.00;99.90;;;;;;5061883;28;20036;-69
2022/06/08 10:10:45;;;;;;;0.00;0.00;;;23.30;99.90;;;;;;5058426;28;20035;-67
2022/06/08 10:13:26;;;;;;;0.55;0.55;;;23.40;99.90;;;;;;5061218;28;20033;-68
2022/06/08 10:15:58;;;;;;;0.10;0.10;;;23.60;99.90;;;;;;5060766;28;20047;-68
2022/06/08 10:18:31;;;;;;;0.10;0.10;;;23.60;99.90;;;;;;5059909;28;20037;-66
2022/06/08 10:21:13;;;;;;;0.10;0.10;;;23.50;99.90;;;;;;5061210;28;20049;-66
2022/06/08 10:23:55;;;;;;;0.50;0.22;;;24.00;99.90;;;;;;5059782;28;20028;-68
2022/06/08 10:26:29;;;;;;;0.17;0.10;;;24.40;99.90;;;;;;5059620;28;20048;-69
2022/06/08 10:29:25;;;;;;;0.80;0.52;;;24.30;99.90;;;;;;5061155;28;20025;-67
2022/06/08 10:32:02;;;;;;;0.08;0.08;;;24.30;99.90;;;;;;5059070;28;20029;-67
2022/06/08 10:34:31;;;;;;;0.52;0.30;;;23.90;99.90;;;;;;5061178;28;20077;-67
2022/06/08 10:37:05;;;;;;;0.10;0.10;;;23.90;99.90;;;;;;5060219;28;20056;-67
2022/06/08 10:39:33;;;;;;;0.10;0.10;;;24.40;99.90;;;;;;5060302;28;20047;-68
2022/06/08 10:44:59;;;;;;;0.00;0.00;;;25.60;97.10;;;;;;5059900;28;20048;-68
2022/06/08 10:47:33;;;;;;;0.30;0.30;;;25.60;99.90;;;;;;5061023;28;20021;-68
2022/06/08 10:50:03;;;;;;;0.40;0.20;;;26.30;99.80;;;;;;5062217;28;20040;-68
2022/06/08 10:52:39;;;;;;;0.15;0.08;;;26.60;91.50;;;;;;5063936;28;20049;-68
2022/06/08 10:55:14;;;;;;;0.32;0.10;;;27.00;82.30;;;;;;5065225;28;20025;-68
2022/06/08 10:57:52;;;;;;;0.20;0.10;;;27.50;85.10;;;;;;5063374;28;20029;-68
2022/06/08 11:00:24;;;;;;;0.10;0.10;;;27.30;78.70;;;;;;5065096;28;20025;-68
2022/06/08 11:02:59;;;;;;;0.17;0.10;;;27.50;90.90;;;;;;5064266;28;20029;-68
2022/06/08 11:05:46;;;;;;;0.20;0.10;;;26.40;87.30;;;;;;5064096;28;20040;-67
2022/06/08 11:08:20;;;;;;;2.08;0.45;;;26.00;92.20;;;;;;5065335;28;20302;-67
2022/06/08 11:13:23;;;;;;;0.75;0.40;;;24.50;99.90;;;;;;5064647;28;20388;-67
2022/06/08 11:16:12;;;;;;;0.17;0.10;;;24.20;99.90;;;;;;5064103;28;20041;-67
2022/06/08 11:19:04;;;;;;;2.40;0.43;;;23.90;99.90;;;;;;5063070;28;20025;-68
2022/06/08 11:21:36;;;;;;;0.30;0.10;;;24.00;99.90;;;;;;5064251;28;20114;-68
2022/06/08 11:24:23;;;;;;;0.17;0.10;;;23.70;99.90;;;;;;5063142;28;20084;-67
2022/06/08 11:27:11;;;;;;;0.25;0.25;;;23.50;99.90;;;;;;5063098;28;20063;-68
2022/06/08 11:29:49;;;;;;;0.20;0.10;;;23.50;99.90;;;;;;5064537;28;20044;-67
2022/06/08 11:33:01;;;;;;;0.22;0.20;;;23.00;99.90;;;;;;5062822;28;20029;-67
2022/06/08 11:35:46;;;;;;;0.13;0.10;;;22.80;99.90;;;;;;5057399;28;20067;-67
2022/06/08 11:38:32;;;;;;;0.10;0.10;;;22.50;99.90;;;;;;5064843;28;20409;-67
2022/06/08 11:41:20;;;;;;;0.10;0.10;;;22.50;99.90;;;;;;5062927;28;20096;-68
2022/06/08 11:43:47;;;;;;;0.20;0.20;;;22.20;99.90;;;;;;5063479;28;20025;-67
2022/06/08 11:46:39;;;;;;;0.00;0.00;;;22.00;99.90;;;;;;5064364;28;20048;-68
2022/06/08 11:49:25;;;;;;;0.20;0.10;;;21.60;99.90;;;;;;5062281;28;20503;-67
2022/06/08 11:51:51;;;;;;;0.25;0.20;;;20.80;99.90;;;;;;5063472;28;20096;-67
2022/06/08 11:54:25;;;;;;;0.30;0.30;;;20.10;99.90;;;;;;5063488;28;20071;-68
2022/06/08 11:57:03;;;;;;;0.25;0.10;;;19.50;99.90;;;;;;5062475;28;20033;-69
2022/06/08 11:59:32;;;;;;;0.30;0.30;;;18.70;99.90;;;;;;5064072;28;20066;-69
2022/06/08 12:02:13;;;;;;;0.10;0.10;;;18.30;99.90;;;;;;5061465;28;20360;-68
2022/06/08 12:04:43;;;;;;;0.40;0.15;;;18.00;99.90;;;;;;5063715;28;20400;-69
2022/06/08 12:07:26;;;;;;;0.10;0.10;;;17.90;99.90;;;;;;5063142;28;20033;-69
2022/06/08 12:09:51;;;;;;;0.38;0.17;;;17.80;99.90;;;;;;5062338;28;20025;-69
2022/06/08 12:12:24;;;;;;;0.30;0.10;;;17.80;99.90;;;;;;5062578;28;20052;-69
2022/06/08 12:14:49;;;;;;;0.05;0.05;;;17.60;99.90;;;;;;5061792;28;20066;-68
2022/06/08 12:17:15;;;;;;;0.05;0.05;;;17.60;99.90;;;;;;5063499;28;20032;-70
2022/06/08 12:19:46;;;;;;;0.57;0.20;;;17.60;99.90;;;;;;5062362;28;20521;-69
2022/06/08 12:22:22;;;;;;;0.30;0.10;;;17.40;99.90;;;;;;5062435;28;20496;-69
2022/06/08 12:25:13;;;;;;;0.10;0.10;;;17.30;99.90;;;;;;5063285;28;20170;-69
2022/06/08 12:27:41;;;;;;;0.35;0.17;;;17.30;99.90;;;;;;5061863;28;20060;-69
2022/06/08 12:30:32;;;;;;;0.28;0.10;;;17.30;99.90;;;;;;5063600;28;20025;-69
2022/06/08 12:33:01;;;;;;;0.60;0.20;;;17.20;99.90;;;;;;5062887;28;20025;-70
2022/06/08 12:35:38;;;;;;;0.60;0.20;;;17.20;99.90;;;;;;5062031;28;20021;-70
2022/06/08 12:38:19;;;;;;;0.17;0.10;;;17.20;99.90;;;;;;5063711;28;20017;-70
2022/06/08 12:41:11;;;;;;;0.13;0.10;;;17.40;99.90;;;;;;5061478;28;20021;-69
2022/06/08 12:43:40;;;;;;;0.40;0.10;;;17.30;99.90;;;;;;5062363;28;20131;-70
2022/06/08 12:46:13;;;;;;;0.52;0.20;;;17.40;99.90;;;;;;5061758;28;20029;-70
2022/06/08 12:48:55;;;;;;;0.70;0.20;;;17.50;99.90;;;;;;5061241;28;20040;-69
2022/06/08 12:51:40;;;;;;;0.38;0.10;;;17.50;99.90;;;;;;5062803;28;20028;-69
2022/06/08 12:54:27;;;;;;;0.22;0.10;;;17.50;99.90;;;;;;5062033;28;20105;-69
2022/06/08 12:57:15;;;;;;;0.17;0.10;;;17.50;99.90;;;;;;5061192;28;20393;-69
2022/06/08 12:59:42;;;;;;;0.43;0.15;;;17.50;99.90;;;;;;5063168;28;20067;-69
2022/06/08 13:02:18;;;;;;;0.40;0.20;;;17.50;99.90;;;;;;5061389;28;20021;-69
2022/06/08 13:04:44;;;;;;;0.88;0.47;;;17.70;99.90;;;;;;5062509;28;20025;-69
2022/06/08 13:07:14;;;;;;;0.38;0.13;;;17.60;99.90;;;;;;5060742;28;20397;-69
2022/06/08 13:09:40;;;;;;;0.32;0.10;;;17.80;99.90;;;;;;5043667;28;20085;-69
2022/06/08 13:12:10;;;;;;;0.45;0.22;;;17.80;99.90;;;;;;5062570;28;20025;-68
2022/06/08 13:14:38;;;;;;;0.60;0.20;;;17.80;99.90;;;;;;5060178;28;20024;-69
2022/06/08 13:17:04;;;;;;;0.32;0.30;;;17.90;99.90;;;;;;5062536;28;20100;-69
2022/06/08 13:19:30;;;;;;;0.60;0.20;;;18.00;99.90;;;;;;5061133;28;20421;-70
2022/06/08 13:21:55;;;;;;;0.90;0.30;;;18.10;99.90;;;;;;5061480;28;20093;-70
2022/06/08 13:24:21;;;;;;;1.08;0.35;;;18.40;99.90;;;;;;5061601;28;20073;-69
2022/06/08 13:26:52;;;;;;;0.43;0.13;;;18.60;99.90;;;;;;5060935;28;20404;-69
2022/06/08 13:29:18;;;;;;;0.30;0.10;;;18.90;99.90;;;;;;5062438;28;20162;-69
2022/06/08 13:31:44;;;;;;;0.45;0.20;;;19.00;99.90;;;;;;5060286;28;20028;-69